Monday, November 24, 2014
03:53 UTC
  |  Log In   |  Register Free
Airport Search:

Tyler Pounds Regional Airport
(KTYR)

FAA data valid effective November 13, 2014 - January 08, 2015 (unless otherwise noted).

 
 
 
 
 
 
 
 
 
 
 
 
 
 

Current Aviation Weather for Tyler Pounds Regional Airport (KTYR)

The most recent METAR observation for KTYR was updated at: 0243
METAR Summary (Translated METAR)
KTYR
240153Z 30012G20KT 10SM CLR 18/07 A2960 RMK AO2 PK WND 31029/0132 SLP017 T01830067
KJDD
240215Z AUTO 27010G14KT 10SM CLR 17/07 A2961 RMK AO2
(23.8 nm NW from KTYR)
KF44
240215Z AUTO 31006KT 10SM SCT110 17/06 A2963 RMK AO2
(24.5 nm SW from KTYR)
TAF Summary (Translated TAF)
KTYR
231744Z 2318/2418 23014KT P6SM SCT015 FM232000 23014G22KT P6SM SKC FM240000 25011KT P6SM SKC FM240300 30014KT P6SM SKC FM240600 30013KT P6SM SCT035 FM241000 30009KT P6SM SKC
  Airport Weather Conditions for KTYR

 Current Weather at TYR
63° F
Fair
Northwest winds at 15.0 mph
TYR NOAA Radar

Pressure: 29.64 in
Humidity: 50%
Wind: from the Northwest at 15.0 gusting to 24.2 MPH (13 gusting to 21 KT)
Dew Point: 44.1°F
Visibility: 10.00 mi


Airport Weather Forecast for KTYR

Translated METAR and TAF for KTYR
Translated METAR for KTYR (0348 UTC 24 November 2014)
found at http://aviationweather.gov/adds/metars/
 
METAR text: KTYR 240253Z 30013G21KT 10SM CLR 17/07 A2964 RMK AO2 SLP032 T01720067 53051
Conditions at: KTYR (TYLER , TX, US) observed 0253 UTC 24 November 2014
Temperature: 17.2°C (63°F)
Dewpoint: 6.7°C (44°F) [RH = 50%]
Pressure (altimeter): 29.64 inches Hg (1003.8 mb)
[Sea-level pressure: 1003.2 mb]
Winds: from the WNW (300 degrees) at 15 MPH (13 knots; 6.8 m/s)
gusting to 24 MPH (21 knots; 10.9 m/s)
Visibility: 10 or more miles (16+ km)
Ceiling: at least 12,000 feet AGL
Clouds: sky clear below 12,000 feet AGL
Weather: no significant weather observed at this time
Translated TAF for KTYR
Forecast for: KTYR (TYLER , TX, US)
TAF Text: KTYR 232341Z 2400/2424 23012KT P6SM SKC
Forecast period: 0000 to 0300 UTC 24 November 2014
Forecast type: FROM: standard forecast or significant change
Winds: from the SW (230 degrees) at 14 MPH (12 knots; 6.2 m/s)
Visibility: 6 or more miles (10+ km)
Clouds: clear skies
Weather: no significant weather forecast for this period
TAF Text: FM240300 29014KT P6SM SKC
Forecast period: 0300 to 0500 UTC 24 November 2014
Forecast type: FROM: standard forecast or significant change
Winds: from the WNW (290 degrees) at 16 MPH (14 knots; 7.3 m/s)
Visibility: 6 or more miles (10+ km)
Clouds: clear skies
Weather: no significant weather forecast for this period
TAF Text: FM240500 30013KT P6SM SCT035
Forecast period: 0500 to 1000 UTC 24 November 2014
Forecast type: FROM: standard forecast or significant change
Winds: from the WNW (300 degrees) at 15 MPH (13 knots; 6.8 m/s)
Visibility: 6 or more miles (10+ km)
Clouds: scattered clouds at 3500 feet AGL
Weather: no significant weather forecast for this period
TAF Text: FM241000 30009KT P6SM SKC
Forecast period: 1000 to 2300 UTC 24 November 2014
Forecast type: FROM: standard forecast or significant change
Winds: from the WNW (300 degrees) at 10 MPH (9 knots; 4.7 m/s)
Visibility: 6 or more miles (10+ km)
Clouds: clear skies
Weather: no significant weather forecast for this period
TAF Text: FM242300 29006KT P6SM SKC
Forecast period: 2300 UTC 24 November 2014 to 0000 UTC 25 November 2014
Forecast type: FROM: standard forecast or significant change
Winds: from the WNW (290 degrees) at 7 MPH (6 knots; 3.1 m/s)
Visibility: 6 or more miles (10+ km)
Clouds: clear skies
Weather: no significant weather forecast for this period

Find All Airport Services Find A Hotel Find A Rental Car Find A Golf Course Find A Restaurant $100 Hamburger



FBO's on the Field
FBO Company Facility Photos Services Transportation Aviation Fuel Prices: Prices include tax
Catering Weather Repair Courtesy Rental Type 100LL JetA JetA+ MOGAS 8087
 
Jet Center of Tyler

Currently rated 5 by 1 person
FS:Phillips 66
Last Updated: Nov-18
Login to update fuel prices
SS:
Contact Jet Center of TylerMore FBO Information
 
Johnson Aviation, Inc

Currently rated 4.1 by 2 people
FS:Avfuel
Last Updated: Nov-18
Login to update fuel prices
SS:
Contact Johnson Aviation, IncMore FBO Information
 
Add another FBO Facility Photos Catering Weather Repair Courtesy Rental Type 100LL JetA JetA+ MOGAS 8087
Services Transportation Aviation Fuel Prices: Prices include tax


model-print
model-print
model-print
model-print